Lawton, MI (49065)

12:55 PM EST on January 29, 2015 (GMT -0500)
MesoWest Lawton MI US MAWN | Change Station
CLOSE
Current Station
Personal Weather Station
Location: Lawton, MI
Elevation: 823 ft
Nearby Weather Stations
Active Advisory: Winter Weather Advisory

Elev 823 ft 42.16 °N, 85.83 °W | Updated 55 minutes ago

Snow
Snow
33 °F
Feels Like 26 °F
N
9
Wind Variable Wind from NW
Gusts 0.0 mph

Today
High -- | Low -- °F
--% Chance of Precip.
Yesterday
High -- | Low -- °F
Precip. -- in
7:59 AM 5:53 PM
Waxing Gibbous, 76% visible
Pressure 29.77 in
Visibility 1.0 miles
Clouds Mostly Cloudy 700 ft
Overcast 1400 ft
Windchill 26 °F
Dew Point 29 °F
Humidity 83%
Rainfall -999.00 in
Snow Depth Not available.
UV 1 out of 12
Pollen .10 out of 12
Air Quality Not available.
Flu Activity Not available.
SPECI KAZO 291713Z 32009KT 1SM R35/3000VP6000FT -SN BR BKN007 OVC014 01/M01 A2977 RMK AO2 P0002 T00061011

More Conditions Fewer Conditions

Pressure 29.77 in
Visibility 1.0 miles
Clouds Mostly Cloudy 700 ft
Overcast 1400 ft
Windchill 26 °F
Dew Point 29 °F
Humidity 83%
Rainfall -999.00 in
Snow Depth Not available.
UV 1 out of 12
Pollen .10 out of 12
Air Quality Not available.
Flu Activity Not available.
SPECI KAZO 291713Z 32009KT 1SM R35/3000VP6000FT -SN BR BKN007 OVC014 01/M01 A2977 RMK AO2 P0002 T00061011

More Conditions Fewer Conditions

10-Day Weather Forecast

Almanac

Astronomy

Jan. 29, 2015 Rise Set
Actual Time
Civil Twilight
Nautical Twilight
Astronomical Twilight
Moon
Length of Visible Light
Length of Day
Tomorrow will be .
, % of the Moon is Illuminated

Today's Extremes

State Highs State Lows

Community

WunderPhotos

Upload Photos

1,791,501 photos uploaded!

WunderBlogs® & News

Nearby

Air Quality

  Air Quality AQ Index Pollutant
Not available.

Snow Depth

Station Depth Elevation

Earthquake Activity

City Distance Mag. Time & Date
Minimum magnitude displayed is 2.5.

Coastal Water Temperatures

Place Temperature

Nearby Weather Stations